sensor_id;sensor_type;location;lat;lon;timestamp;P1;durP1;ratioP1;P2;durP2;ratioP2
38427;SDS011;24211;49.980;19.776;2023-02-22T00:01:54;14.73;;;5.53;;
38427;SDS011;24211;49.980;19.776;2023-02-22T00:04:37;16.05;;;5.18;;
38427;SDS011;24211;49.980;19.776;2023-02-22T00:07:07;16.20;;;5.70;;
38427;SDS011;24211;49.980;19.776;2023-02-22T00:09:34;15.27;;;6.00;;
38427;SDS011;24211;49.980;19.776;2023-02-22T00:12:01;19.38;;;5.85;;
38427;SDS011;24211;49.980;19.776;2023-02-22T00:14:28;15.88;;;4.70;;
38427;SDS011;24211;49.980;19.776;2023-02-22T00:16:56;15.60;;;5.55;;
38427;SDS011;24211;49.980;19.776;2023-02-22T00:19:25;15.85;;;5.30;;
38427;SDS011;24211;49.980;19.776;2023-02-22T00:21:56;14.82;;;5.22;;
38427;SDS011;24211;49.980;19.776;2023-02-22T00:24:23;13.27;;;4.75;;
38427;SDS011;24211;49.980;19.776;2023-02-22T00:26:51;14.77;;;5.05;;
38427;SDS011;24211;49.980;19.776;2023-02-22T00:29:23;14.55;;;5.13;;
38427;SDS011;24211;49.980;19.776;2023-02-22T00:31:51;12.25;;;4.47;;
38427;SDS011;24211;49.980;19.776;2023-02-22T00:34:19;12.90;;;4.53;;
38427;SDS011;24211;49.980;19.776;2023-02-22T00:36:49;11.93;;;4.60;;
38427;SDS011;24211;49.980;19.776;2023-02-22T00:39:16;11.57;;;4.70;;
38427;SDS011;24211;49.980;19.776;2023-02-22T00:41:43;12.20;;;4.78;;
38427;SDS011;24211;49.980;19.776;2023-02-22T00:44:11;15.07;;;4.85;;
38427;SDS011;24211;49.980;19.776;2023-02-22T00:46:38;12.90;;;4.60;;
38427;SDS011;24211;49.980;19.776;2023-02-22T00:49:05;12.40;;;4.22;;
38427;SDS011;24211;49.980;19.776;2023-02-22T00:51:33;13.85;;;5.03;;
38427;SDS011;24211;49.980;19.776;2023-02-22T00:54:00;13.95;;;5.00;;
38427;SDS011;24211;49.980;19.776;2023-02-22T00:56:28;15.82;;;5.30;;
38427;SDS011;24211;49.980;19.776;2023-02-22T00:58:55;13.23;;;5.30;;
38427;SDS011;24211;49.980;19.776;2023-02-22T01:01:22;16.00;;;5.35;;
38427;SDS011;24211;49.980;19.776;2023-02-22T01:03:49;15.60;;;5.30;;
38427;SDS011;24211;49.980;19.776;2023-02-22T01:06:17;18.05;;;5.38;;
38427;SDS011;24211;49.980;19.776;2023-02-22T01:08:46;17.30;;;6.18;;
38427;SDS011;24211;49.980;19.776;2023-02-22T01:11:16;15.55;;;6.03;;
38427;SDS011;24211;49.980;19.776;2023-02-22T01:13:44;19.25;;;6.05;;
38427;SDS011;24211;49.980;19.776;2023-02-22T01:16:11;17.80;;;5.90;;
38427;SDS011;24211;49.980;19.776;2023-02-22T01:18:38;20.42;;;6.32;;
38427;SDS011;24211;49.980;19.776;2023-02-22T01:21:06;16.10;;;6.18;;
38427;SDS011;24211;49.980;19.776;2023-02-22T01:23:33;15.77;;;6.07;;
38427;SDS011;24211;49.980;19.776;2023-02-22T01:26:03;16.70;;;6.00;;
38427;SDS011;24211;49.980;19.776;2023-02-22T01:28:32;19.75;;;5.93;;
38427;SDS011;24211;49.980;19.776;2023-02-22T01:31:01;18.65;;;5.85;;
38427;SDS011;24211;49.980;19.776;2023-02-22T01:33:28;16.17;;;6.47;;
38427;SDS011;24211;49.980;19.776;2023-02-22T01:35:56;14.45;;;6.00;;
38427;SDS011;24211;49.980;19.776;2023-02-22T01:38:26;15.65;;;5.70;;
38427;SDS011;24211;49.980;19.776;2023-02-22T01:40:53;16.65;;;5.85;;
38427;SDS011;24211;49.980;19.776;2023-02-22T01:45:57;18.27;;;6.10;;
38427;SDS011;24211;49.980;19.776;2023-02-22T01:48:47;16.10;;;6.40;;
38427;SDS011;24211;49.980;19.776;2023-02-22T01:51:33;17.67;;;6.00;;
38427;SDS011;24211;49.980;19.776;2023-02-22T01:54:12;21.80;;;6.65;;
38427;SDS011;24211;49.980;19.776;2023-02-22T01:56:49;18.85;;;7.10;;
38427;SDS011;24211;49.980;19.776;2023-02-22T01:59:27;18.88;;;6.47;;
38427;SDS011;24211;49.980;19.776;2023-02-22T02:01:59;18.63;;;6.22;;
38427;SDS011;24211;49.980;19.776;2023-02-22T02:04:30;13.15;;;5.85;;
38427;SDS011;24211;49.980;19.776;2023-02-22T02:07:00;17.25;;;6.35;;
38427;SDS011;24211;49.980;19.776;2023-02-22T02:12:10;15.80;;;6.45;;
38427;SDS011;24211;49.980;19.776;2023-02-22T02:14:41;16.65;;;6.47;;
38427;SDS011;24211;49.980;19.776;2023-02-22T02:17:13;17.00;;;6.95;;
38427;SDS011;24211;49.980;19.776;2023-02-22T02:22:50;16.75;;;6.30;;
38427;SDS011;24211;49.980;19.776;2023-02-22T02:29:22;17.30;;;6.45;;
38427;SDS011;24211;49.980;19.776;2023-02-22T02:31:59;19.23;;;7.47;;
38427;SDS011;24211;49.980;19.776;2023-02-22T02:35:01;16.52;;;6.93;;
38427;SDS011;24211;49.980;19.776;2023-02-22T02:40:38;17.13;;;6.90;;
38427;SDS011;24211;49.980;19.776;2023-02-22T02:43:41;21.13;;;6.88;;
38427;SDS011;24211;49.980;19.776;2023-02-22T02:46:23;19.00;;;7.13;;
38427;SDS011;24211;49.980;19.776;2023-02-22T02:49:13;16.50;;;6.30;;
38427;SDS011;24211;49.980;19.776;2023-02-22T02:51:51;17.52;;;6.68;;
38427;SDS011;24211;49.980;19.776;2023-02-22T02:54:21;17.58;;;6.45;;
38427;SDS011;24211;49.980;19.776;2023-02-22T02:56:51;16.55;;;5.97;;
38427;SDS011;24211;49.980;19.776;2023-02-22T02:59:28;17.20;;;6.22;;
38427;SDS011;24211;49.980;19.776;2023-02-22T03:02:11;18.15;;;6.45;;
38427;SDS011;24211;49.980;19.776;2023-02-22T03:05:43;19.75;;;6.68;;
38427;SDS011;24211;49.980;19.776;2023-02-22T03:08:54;20.77;;;6.65;;
38427;SDS011;24211;49.980;19.776;2023-02-22T03:11:31;17.20;;;6.40;;
38427;SDS011;24211;49.980;19.776;2023-02-22T03:17:13;18.63;;;6.95;;
38427;SDS011;24211;49.980;19.776;2023-02-22T03:23:31;19.00;;;6.90;;
38427;SDS011;24211;49.980;19.776;2023-02-22T03:26:10;18.15;;;6.57;;
38427;SDS011;24211;49.980;19.776;2023-02-22T03:28:45;15.65;;;6.75;;
38427;SDS011;24211;49.980;19.776;2023-02-22T03:31:21;18.25;;;6.95;;
38427;SDS011;24211;49.980;19.776;2023-02-22T03:33:56;17.98;;;7.05;;
38427;SDS011;24211;49.980;19.776;2023-02-22T03:36:39;20.55;;;7.18;;
38427;SDS011;24211;49.980;19.776;2023-02-22T03:39:14;17.42;;;6.32;;
38427;SDS011;24211;49.980;19.776;2023-02-22T03:41:47;15.05;;;6.25;;
38427;SDS011;24211;49.980;19.776;2023-02-22T03:44:22;17.55;;;6.80;;
38427;SDS011;24211;49.980;19.776;2023-02-22T03:46:54;17.75;;;6.30;;
38427;SDS011;24211;49.980;19.776;2023-02-22T03:49:32;16.00;;;6.50;;
38427;SDS011;24211;49.980;19.776;2023-02-22T03:52:06;16.38;;;6.28;;
38427;SDS011;24211;49.980;19.776;2023-02-22T03:54:38;16.27;;;6.35;;
38427;SDS011;24211;49.980;19.776;2023-02-22T03:57:11;14.38;;;6.20;;
38427;SDS011;24211;49.980;19.776;2023-02-22T03:59:51;17.50;;;6.13;;
38427;SDS011;24211;49.980;19.776;2023-02-22T04:02:19;16.60;;;6.03;;
38427;SDS011;24211;49.980;19.776;2023-02-22T04:04:50;17.05;;;6.18;;
38427;SDS011;24211;49.980;19.776;2023-02-22T04:07:17;12.57;;;5.68;;
38427;SDS011;24211;49.980;19.776;2023-02-22T04:09:45;14.85;;;5.90;;
38427;SDS011;24211;49.980;19.776;2023-02-22T04:12:12;13.57;;;5.97;;
38427;SDS011;24211;49.980;19.776;2023-02-22T04:15:10;13.73;;;5.78;;
38427;SDS011;24211;49.980;19.776;2023-02-22T04:17:41;15.10;;;5.72;;
38427;SDS011;24211;49.980;19.776;2023-02-22T04:20:12;14.18;;;5.65;;
38427;SDS011;24211;49.980;19.776;2023-02-22T04:22:46;15.13;;;5.57;;
38427;SDS011;24211;49.980;19.776;2023-02-22T04:25:14;14.30;;;5.32;;
38427;SDS011;24211;49.980;19.776;2023-02-22T04:27:42;13.63;;;5.50;;
38427;SDS011;24211;49.980;19.776;2023-02-22T04:30:10;15.38;;;5.60;;
38427;SDS011;24211;49.980;19.776;2023-02-22T04:32:38;16.58;;;5.45;;
38427;SDS011;24211;49.980;19.776;2023-02-22T04:35:06;13.95;;;5.90;;
38427;SDS011;24211;49.980;19.776;2023-02-22T04:37:34;16.25;;;6.00;;
38427;SDS011;24211;49.980;19.776;2023-02-22T04:40:04;12.98;;;6.07;;
38427;SDS011;24211;49.980;19.776;2023-02-22T04:42:36;13.35;;;5.55;;
38427;SDS011;24211;49.980;19.776;2023-02-22T04:45:05;16.58;;;6.03;;
38427;SDS011;24211;49.980;19.776;2023-02-22T04:47:35;14.25;;;5.45;;
38427;SDS011;24211;49.980;19.776;2023-02-22T04:50:04;13.23;;;5.80;;
38427;SDS011;24211;49.980;19.776;2023-02-22T04:52:34;14.70;;;6.00;;
38427;SDS011;24211;49.980;19.776;2023-02-22T04:55:01;14.20;;;5.72;;
38427;SDS011;24211;49.980;19.776;2023-02-22T04:57:31;14.10;;;5.60;;
38427;SDS011;24211;49.980;19.776;2023-02-22T04:59:58;16.55;;;6.00;;
38427;SDS011;24211;49.980;19.776;2023-02-22T05:02:26;14.90;;;5.85;;
38427;SDS011;24211;49.980;19.776;2023-02-22T05:04:53;14.45;;;5.60;;
38427;SDS011;24211;49.980;19.776;2023-02-22T05:07:21;14.02;;;5.97;;
38427;SDS011;24211;49.980;19.776;2023-02-22T05:09:48;14.85;;;5.82;;
38427;SDS011;24211;49.980;19.776;2023-02-22T05:12:15;13.90;;;5.68;;
38427;SDS011;24211;49.980;19.776;2023-02-22T05:14:42;18.23;;;6.10;;
38427;SDS011;24211;49.980;19.776;2023-02-22T05:17:10;12.70;;;5.75;;
38427;SDS011;24211;49.980;19.776;2023-02-22T05:19:37;15.45;;;5.70;;
38427;SDS011;24211;49.980;19.776;2023-02-22T05:22:04;13.07;;;5.53;;
38427;SDS011;24211;49.980;19.776;2023-02-22T05:24:31;15.73;;;6.63;;
38427;SDS011;24211;49.980;19.776;2023-02-22T05:26:59;13.15;;;5.40;;
38427;SDS011;24211;49.980;19.776;2023-02-22T05:29:27;13.65;;;5.93;;
38427;SDS011;24211;49.980;19.776;2023-02-22T05:31:54;17.98;;;6.85;;
38427;SDS011;24211;49.980;19.776;2023-02-22T05:34:23;17.80;;;6.82;;
38427;SDS011;24211;49.980;19.776;2023-02-22T05:36:50;15.25;;;6.63;;
38427;SDS011;24211;49.980;19.776;2023-02-22T05:39:18;16.58;;;6.72;;
38427;SDS011;24211;49.980;19.776;2023-02-22T05:41:45;17.42;;;6.72;;
38427;SDS011;24211;49.980;19.776;2023-02-22T05:44:12;18.55;;;7.45;;
38427;SDS011;24211;49.980;19.776;2023-02-22T05:46:39;17.20;;;6.82;;
38427;SDS011;24211;49.980;19.776;2023-02-22T05:49:06;17.70;;;7.00;;
38427;SDS011;24211;49.980;19.776;2023-02-22T05:51:33;18.70;;;7.47;;
38427;SDS011;24211;49.980;19.776;2023-02-22T05:54:03;19.48;;;6.97;;
38427;SDS011;24211;49.980;19.776;2023-02-22T05:56:30;18.65;;;7.57;;
38427;SDS011;24211;49.980;19.776;2023-02-22T05:58:58;19.83;;;7.90;;
38427;SDS011;24211;49.980;19.776;2023-02-22T06:01:25;20.65;;;8.13;;
38427;SDS011;24211;49.980;19.776;2023-02-22T06:03:52;22.67;;;8.93;;
38427;SDS011;24211;49.980;19.776;2023-02-22T06:06:20;24.23;;;8.68;;
38427;SDS011;24211;49.980;19.776;2023-02-22T06:08:48;24.25;;;9.10;;
38427;SDS011;24211;49.980;19.776;2023-02-22T06:11:15;21.83;;;8.38;;
38427;SDS011;24211;49.980;19.776;2023-02-22T06:13:49;23.50;;;8.77;;
38427;SDS011;24211;49.980;19.776;2023-02-22T06:16:19;20.05;;;8.35;;
38427;SDS011;24211;49.980;19.776;2023-02-22T06:18:47;20.88;;;8.50;;
38427;SDS011;24211;49.980;19.776;2023-02-22T06:21:15;22.35;;;8.70;;
38427;SDS011;24211;49.980;19.776;2023-02-22T06:23:43;20.80;;;8.82;;
38427;SDS011;24211;49.980;19.776;2023-02-22T06:26:10;21.65;;;9.18;;
38427;SDS011;24211;49.980;19.776;2023-02-22T06:28:38;22.02;;;8.82;;
38427;SDS011;24211;49.980;19.776;2023-02-22T06:31:05;19.55;;;8.00;;
38427;SDS011;24211;49.980;19.776;2023-02-22T06:33:32;22.10;;;8.80;;
38427;SDS011;24211;49.980;19.776;2023-02-22T06:35:59;17.75;;;7.97;;
38427;SDS011;24211;49.980;19.776;2023-02-22T06:38:26;20.55;;;8.68;;
38427;SDS011;24211;49.980;19.776;2023-02-22T06:40:54;21.50;;;8.60;;
38427;SDS011;24211;49.980;19.776;2023-02-22T06:43:22;19.65;;;8.85;;
38427;SDS011;24211;49.980;19.776;2023-02-22T06:45:50;21.50;;;9.02;;
38427;SDS011;24211;49.980;19.776;2023-02-22T06:48:18;20.83;;;8.30;;
38427;SDS011;24211;49.980;19.776;2023-02-22T06:50:45;21.08;;;7.97;;
38427;SDS011;24211;49.980;19.776;2023-02-22T06:53:12;18.55;;;8.30;;
38427;SDS011;24211;49.980;19.776;2023-02-22T06:55:40;18.55;;;7.40;;
38427;SDS011;24211;49.980;19.776;2023-02-22T06:58:07;19.08;;;8.07;;
38427;SDS011;24211;49.980;19.776;2023-02-22T07:00:34;19.38;;;8.07;;
38427;SDS011;24211;49.980;19.776;2023-02-22T07:03:02;18.25;;;7.65;;
38427;SDS011;24211;49.980;19.776;2023-02-22T07:05:30;18.95;;;8.18;;
38427;SDS011;24211;49.980;19.776;2023-02-22T07:08:02;16.80;;;7.20;;
38427;SDS011;24211;49.980;19.776;2023-02-22T07:10:33;14.57;;;6.90;;
38427;SDS011;24211;49.980;19.776;2023-02-22T07:13:01;17.23;;;7.38;;
38427;SDS011;24211;49.980;19.776;2023-02-22T07:15:32;20.67;;;7.78;;
38427;SDS011;24211;49.980;19.776;2023-02-22T07:18:01;17.50;;;7.20;;
38427;SDS011;24211;49.980;19.776;2023-02-22T07:20:29;17.33;;;7.50;;
38427;SDS011;24211;49.980;19.776;2023-02-22T07:22:57;16.00;;;7.07;;
38427;SDS011;24211;49.980;19.776;2023-02-22T07:25:25;16.60;;;7.90;;
38427;SDS011;24211;49.980;19.776;2023-02-22T07:27:52;22.40;;;8.55;;
38427;SDS011;24211;49.980;19.776;2023-02-22T07:32:57;20.08;;;8.90;;
38427;SDS011;24211;49.980;19.776;2023-02-22T07:35:29;17.65;;;8.27;;
38427;SDS011;24211;49.980;19.776;2023-02-22T07:38:05;19.17;;;8.18;;
38427;SDS011;24211;49.980;19.776;2023-02-22T07:40:34;18.55;;;8.02;;
38427;SDS011;24211;49.980;19.776;2023-02-22T07:43:06;22.13;;;9.75;;
38427;SDS011;24211;49.980;19.776;2023-02-22T07:45:52;23.50;;;10.13;;
38427;SDS011;24211;49.980;19.776;2023-02-22T07:48:23;25.95;;;11.27;;
38427;SDS011;24211;49.980;19.776;2023-02-22T07:50:54;24.63;;;11.48;;
38427;SDS011;24211;49.980;19.776;2023-02-22T07:53:23;25.83;;;12.48;;
38427;SDS011;24211;49.980;19.776;2023-02-22T07:55:59;29.23;;;12.85;;
38427;SDS011;24211;49.980;19.776;2023-02-22T07:58:31;29.75;;;13.50;;
38427;SDS011;24211;49.980;19.776;2023-02-22T08:00:58;26.45;;;12.98;;
38427;SDS011;24211;49.980;19.776;2023-02-22T08:03:30;31.05;;;13.75;;
38427;SDS011;24211;49.980;19.776;2023-02-22T08:06:03;28.83;;;12.73;;
38427;SDS011;24211;49.980;19.776;2023-02-22T08:08:32;24.77;;;12.63;;
38427;SDS011;24211;49.980;19.776;2023-02-22T08:11:00;29.95;;;13.20;;
38427;SDS011;24211;49.980;19.776;2023-02-22T08:13:27;31.25;;;13.10;;
38427;SDS011;24211;49.980;19.776;2023-02-22T08:15:55;31.20;;;13.27;;
38427;SDS011;24211;49.980;19.776;2023-02-22T08:18:22;36.13;;;13.52;;
38427;SDS011;24211;49.980;19.776;2023-02-22T08:20:51;30.40;;;13.68;;
38427;SDS011;24211;49.980;19.776;2023-02-22T08:23:21;31.70;;;12.90;;
38427;SDS011;24211;49.980;19.776;2023-02-22T08:25:51;26.17;;;12.13;;
38427;SDS011;24211;49.980;19.776;2023-02-22T08:28:20;27.08;;;12.65;;
38427;SDS011;24211;49.980;19.776;2023-02-22T08:30:50;29.98;;;12.60;;
38427;SDS011;24211;49.980;19.776;2023-02-22T08:33:18;30.88;;;12.88;;
38427;SDS011;24211;49.980;19.776;2023-02-22T08:35:46;31.65;;;12.80;;
38427;SDS011;24211;49.980;19.776;2023-02-22T08:38:26;29.80;;;12.57;;
38427;SDS011;24211;49.980;19.776;2023-02-22T08:40:56;29.52;;;12.18;;
38427;SDS011;24211;49.980;19.776;2023-02-22T08:43:24;32.55;;;11.85;;
38427;SDS011;24211;49.980;19.776;2023-02-22T08:45:51;30.88;;;11.93;;
38427;SDS011;24211;49.980;19.776;2023-02-22T08:48:22;32.30;;;11.80;;
38427;SDS011;24211;49.980;19.776;2023-02-22T08:50:49;30.15;;;11.88;;
38427;SDS011;24211;49.980;19.776;2023-02-22T08:53:17;31.35;;;11.35;;
38427;SDS011;24211;49.980;19.776;2023-02-22T08:55:44;32.38;;;12.00;;
38427;SDS011;24211;49.980;19.776;2023-02-22T08:58:14;29.35;;;11.38;;
38427;SDS011;24211;49.980;19.776;2023-02-22T09:00:42;32.58;;;11.38;;
38427;SDS011;24211;49.980;19.776;2023-02-22T09:03:12;31.75;;;10.73;;
38427;SDS011;24211;49.980;19.776;2023-02-22T09:05:47;29.70;;;11.18;;
38427;SDS011;24211;49.980;19.776;2023-02-22T09:08:15;29.48;;;11.10;;
38427;SDS011;24211;49.980;19.776;2023-02-22T09:10:43;31.35;;;10.30;;
38427;SDS011;24211;49.980;19.776;2023-02-22T09:13:10;27.27;;;10.40;;
38427;SDS011;24211;49.980;19.776;2023-02-22T09:15:38;30.15;;;9.90;;
38427;SDS011;24211;49.980;19.776;2023-02-22T09:18:06;28.88;;;10.00;;
38427;SDS011;24211;49.980;19.776;2023-02-22T09:20:35;29.40;;;9.93;;
38427;SDS011;24211;49.980;19.776;2023-02-22T09:23:05;27.73;;;8.82;;
38427;SDS011;24211;49.980;19.776;2023-02-22T09:25:35;24.60;;;9.40;;
38427;SDS011;24211;49.980;19.776;2023-02-22T09:28:04;23.98;;;9.57;;
38427;SDS011;24211;49.980;19.776;2023-02-22T09:30:33;27.75;;;9.70;;
38427;SDS011;24211;49.980;19.776;2023-02-22T09:33:03;24.60;;;9.38;;
38427;SDS011;24211;49.980;19.776;2023-02-22T09:35:41;24.77;;;8.55;;
38427;SDS011;24211;49.980;19.776;2023-02-22T09:38:13;24.70;;;8.95;;
38427;SDS011;24211;49.980;19.776;2023-02-22T09:40:47;23.73;;;7.95;;
38427;SDS011;24211;49.980;19.776;2023-02-22T09:51:41;22.42;;;6.53;;
38427;SDS011;24211;49.980;19.776;2023-02-22T09:54:46;17.98;;;6.68;;
38427;SDS011;24211;49.980;19.776;2023-02-22T09:57:22;21.00;;;5.80;;
38427;SDS011;24211;49.980;19.776;2023-02-22T10:00:05;14.35;;;4.80;;
38427;SDS011;24211;49.980;19.776;2023-02-22T10:05:42;12.75;;;4.15;;
38427;SDS011;24211;49.980;19.776;2023-02-22T10:08:19;11.30;;;3.30;;
38427;SDS011;24211;49.980;19.776;2023-02-22T10:10:49;16.65;;;3.75;;
38427;SDS011;24211;49.980;19.776;2023-02-22T10:13:34;8.93;;;3.13;;
38427;SDS011;24211;49.980;19.776;2023-02-22T10:22:34;8.77;;;2.97;;
38427;SDS011;24211;49.980;19.776;2023-02-22T10:25:09;11.27;;;2.88;;
38427;SDS011;24211;49.980;19.776;2023-02-22T10:30:32;10.13;;;2.85;;
38427;SDS011;24211;49.980;19.776;2023-02-22T10:35:46;10.10;;;2.53;;
38427;SDS011;24211;49.980;19.776;2023-02-22T10:40:56;11.07;;;2.80;;
38427;SDS011;24211;49.980;19.776;2023-02-22T10:43:46;11.30;;;2.80;;
38427;SDS011;24211;49.980;19.776;2023-02-22T10:46:14;8.50;;;2.72;;
38427;SDS011;24211;49.980;19.776;2023-02-22T10:48:47;9.43;;;2.80;;
38427;SDS011;24211;49.980;19.776;2023-02-22T10:51:21;7.82;;;2.88;;
38427;SDS011;24211;49.980;19.776;2023-02-22T10:53:52;10.52;;;2.97;;
38427;SDS011;24211;49.980;19.776;2023-02-22T10:56:47;10.90;;;3.08;;
38427;SDS011;24211;49.980;19.776;2023-02-22T10:59:27;10.48;;;2.67;;
38427;SDS011;24211;49.980;19.776;2023-02-22T11:02:00;9.95;;;2.80;;
38427;SDS011;24211;49.980;19.776;2023-02-22T11:05:01;9.98;;;3.00;;
38427;SDS011;24211;49.980;19.776;2023-02-22T11:07:32;11.80;;;3.03;;
38427;SDS011;24211;49.980;19.776;2023-02-22T11:10:02;8.63;;;3.00;;
38427;SDS011;24211;49.980;19.776;2023-02-22T11:12:38;9.70;;;3.40;;
38427;SDS011;24211;49.980;19.776;2023-02-22T11:17:44;20.85;;;8.48;;
38427;SDS011;24211;49.980;19.776;2023-02-22T11:20:24;22.77;;;9.82;;
38427;SDS011;24211;49.980;19.776;2023-02-22T11:23:04;18.98;;;7.55;;
38427;SDS011;24211;49.980;19.776;2023-02-22T11:25:35;19.90;;;6.65;;
38427;SDS011;24211;49.980;19.776;2023-02-22T11:31:07;10.30;;;4.82;;
38427;SDS011;24211;49.980;19.776;2023-02-22T11:33:56;12.65;;;4.97;;
38427;SDS011;24211;49.980;19.776;2023-02-22T11:36:31;10.45;;;4.20;;
38427;SDS011;24211;49.980;19.776;2023-02-22T11:39:23;10.73;;;3.90;;
38427;SDS011;24211;49.980;19.776;2023-02-22T11:42:19;7.83;;;3.10;;
38427;SDS011;24211;49.980;19.776;2023-02-22T11:45:12;9.45;;;3.50;;
38427;SDS011;24211;49.980;19.776;2023-02-22T11:47:57;7.53;;;2.92;;
38427;SDS011;24211;49.980;19.776;2023-02-22T11:50:32;7.32;;;2.70;;
38427;SDS011;24211;49.980;19.776;2023-02-22T11:53:28;8.45;;;2.40;;
38427;SDS011;24211;49.980;19.776;2023-02-22T11:56:43;7.93;;;2.65;;
38427;SDS011;24211;49.980;19.776;2023-02-22T11:59:35;8.77;;;2.65;;
38427;SDS011;24211;49.980;19.776;2023-02-22T12:02:34;10.35;;;2.80;;
38427;SDS011;24211;49.980;19.776;2023-02-22T12:05:30;8.10;;;2.42;;
38427;SDS011;24211;49.980;19.776;2023-02-22T12:11:14;9.02;;;2.63;;
38427;SDS011;24211;49.980;19.776;2023-02-22T12:14:25;7.65;;;2.60;;
38427;SDS011;24211;49.980;19.776;2023-02-22T12:17:42;11.45;;;2.70;;
38427;SDS011;24211;49.980;19.776;2023-02-22T12:20:50;9.30;;;2.70;;
38427;SDS011;24211;49.980;19.776;2023-02-22T12:23:40;6.88;;;2.25;;
38427;SDS011;24211;49.980;19.776;2023-02-22T12:26:39;8.65;;;2.50;;
38427;SDS011;24211;49.980;19.776;2023-02-22T12:29:47;8.13;;;2.40;;
38427;SDS011;24211;49.980;19.776;2023-02-22T12:32:18;6.35;;;2.30;;
38427;SDS011;24211;49.980;19.776;2023-02-22T12:35:13;9.45;;;3.00;;
38427;SDS011;24211;49.980;19.776;2023-02-22T12:38:09;8.10;;;2.60;;
38427;SDS011;24211;49.980;19.776;2023-02-22T12:46:20;9.38;;;2.60;;
38427;SDS011;24211;49.980;19.776;2023-02-22T12:49:11;8.85;;;2.95;;
38427;SDS011;24211;49.980;19.776;2023-02-22T12:51:47;10.53;;;2.93;;
38427;SDS011;24211;49.980;19.776;2023-02-22T12:55:03;8.05;;;2.97;;
38427;SDS011;24211;49.980;19.776;2023-02-22T12:57:52;9.07;;;2.97;;
38427;SDS011;24211;49.980;19.776;2023-02-22T13:00:50;7.65;;;3.22;;
38427;SDS011;24211;49.980;19.776;2023-02-22T13:03:32;8.55;;;3.00;;
38427;SDS011;24211;49.980;19.776;2023-02-22T13:18:33;8.98;;;3.20;;
38427;SDS011;24211;49.980;19.776;2023-02-22T13:21:28;11.02;;;3.28;;
38427;SDS011;24211;49.980;19.776;2023-02-22T13:24:13;9.13;;;3.20;;
38427;SDS011;24211;49.980;19.776;2023-02-22T13:30:20;8.05;;;3.00;;
38427;SDS011;24211;49.980;19.776;2023-02-22T13:33:15;8.70;;;3.28;;
38427;SDS011;24211;49.980;19.776;2023-02-22T13:36:25;8.98;;;3.30;;
38427;SDS011;24211;49.980;19.776;2023-02-22T13:39:28;9.65;;;3.40;;
38427;SDS011;24211;49.980;19.776;2023-02-22T13:42:39;8.43;;;3.03;;
38427;SDS011;24211;49.980;19.776;2023-02-22T13:45:45;7.97;;;3.20;;
38427;SDS011;24211;49.980;19.776;2023-02-22T13:49:05;12.10;;;3.33;;
38427;SDS011;24211;49.980;19.776;2023-02-22T13:51:58;10.27;;;2.80;;
38427;SDS011;24211;49.980;19.776;2023-02-22T13:57:17;8.90;;;3.10;;
38427;SDS011;24211;49.980;19.776;2023-02-22T14:10:44;9.18;;;3.60;;
38427;SDS011;24211;49.980;19.776;2023-02-22T14:13:18;9.50;;;3.92;;
38427;SDS011;24211;49.980;19.776;2023-02-22T14:18:37;14.98;;;5.85;;
38427;SDS011;24211;49.980;19.776;2023-02-22T14:21:28;14.68;;;5.75;;
38427;SDS011;24211;49.980;19.776;2023-02-22T14:23:55;16.08;;;6.60;;
38427;SDS011;24211;49.980;19.776;2023-02-22T14:26:37;14.13;;;5.60;;
38427;SDS011;24211;49.980;19.776;2023-02-22T14:34:09;11.38;;;4.32;;
38427;SDS011;24211;49.980;19.776;2023-02-22T14:39:44;7.97;;;3.72;;
38427;SDS011;24211;49.980;19.776;2023-02-22T14:42:21;11.73;;;4.00;;
38427;SDS011;24211;49.980;19.776;2023-02-22T14:50:59;11.88;;;3.20;;
38427;SDS011;24211;49.980;19.776;2023-02-22T14:54:01;9.95;;;3.50;;
38427;SDS011;24211;49.980;19.776;2023-02-22T14:56:42;9.13;;;3.13;;
38427;SDS011;24211;49.980;19.776;2023-02-22T15:00:04;10.32;;;3.47;;
38427;SDS011;24211;49.980;19.776;2023-02-22T15:02:49;9.90;;;3.70;;
38427;SDS011;24211;49.980;19.776;2023-02-22T15:05:19;9.32;;;3.20;;
38427;SDS011;24211;49.980;19.776;2023-02-22T15:07:52;8.15;;;3.20;;
38427;SDS011;24211;49.980;19.776;2023-02-22T15:10:50;9.48;;;3.55;;
38427;SDS011;24211;49.980;19.776;2023-02-22T15:13:18;10.57;;;3.38;;
38427;SDS011;24211;49.980;19.776;2023-02-22T15:18:45;10.30;;;3.35;;
38427;SDS011;24211;49.980;19.776;2023-02-22T15:21:20;10.00;;;3.35;;
38427;SDS011;24211;49.980;19.776;2023-02-22T15:26:44;8.55;;;3.40;;
38427;SDS011;24211;49.980;19.776;2023-02-22T15:29:31;8.70;;;3.40;;
38427;SDS011;24211;49.980;19.776;2023-02-22T15:32:27;9.55;;;3.67;;
38427;SDS011;24211;49.980;19.776;2023-02-22T15:35:26;8.50;;;3.55;;
38427;SDS011;24211;49.980;19.776;2023-02-22T15:40:33;9.60;;;3.65;;
38427;SDS011;24211;49.980;19.776;2023-02-22T15:43:05;12.23;;;4.45;;
38427;SDS011;24211;49.980;19.776;2023-02-22T15:48:09;12.88;;;4.72;;
38427;SDS011;24211;49.980;19.776;2023-02-22T15:50:37;12.38;;;4.80;;
38427;SDS011;24211;49.980;19.776;2023-02-22T15:53:20;13.07;;;5.35;;
38427;SDS011;24211;49.980;19.776;2023-02-22T15:55:56;11.18;;;5.20;;
38427;SDS011;24211;49.980;19.776;2023-02-22T15:58:36;15.90;;;5.70;;
38427;SDS011;24211;49.980;19.776;2023-02-22T16:01:08;13.40;;;5.80;;
38427;SDS011;24211;49.980;19.776;2023-02-22T16:04:03;14.95;;;5.80;;
38427;SDS011;24211;49.980;19.776;2023-02-22T16:06:31;12.35;;;5.45;;
38427;SDS011;24211;49.980;19.776;2023-02-22T16:11:41;14.95;;;5.85;;
38427;SDS011;24211;49.980;19.776;2023-02-22T16:14:25;13.52;;;5.80;;
38427;SDS011;24211;49.980;19.776;2023-02-22T16:22:50;12.10;;;5.25;;
38427;SDS011;24211;49.980;19.776;2023-02-22T16:27:45;12.20;;;5.20;;
38427;SDS011;24211;49.980;19.776;2023-02-22T16:30:45;12.93;;;5.28;;
38427;SDS011;24211;49.980;19.776;2023-02-22T16:33:23;15.43;;;5.35;;
38427;SDS011;24211;49.980;19.776;2023-02-22T16:35:55;15.40;;;5.65;;
38427;SDS011;24211;49.980;19.776;2023-02-22T16:38:22;16.45;;;6.28;;
38427;SDS011;24211;49.980;19.776;2023-02-22T16:40:53;18.77;;;7.22;;
38427;SDS011;24211;49.980;19.776;2023-02-22T16:43:27;19.40;;;7.15;;
38427;SDS011;24211;49.980;19.776;2023-02-22T16:46:00;17.80;;;6.75;;
38427;SDS011;24211;49.980;19.776;2023-02-22T16:48:30;15.52;;;6.40;;
38427;SDS011;24211;49.980;19.776;2023-02-22T16:51:08;18.60;;;6.78;;
38427;SDS011;24211;49.980;19.776;2023-02-22T16:53:44;14.10;;;6.65;;
38427;SDS011;24211;49.980;19.776;2023-02-22T16:56:13;14.70;;;6.35;;
38427;SDS011;24211;49.980;19.776;2023-02-22T16:58:44;13.52;;;6.28;;
38427;SDS011;24211;49.980;19.776;2023-02-22T17:01:16;13.93;;;6.03;;
38427;SDS011;24211;49.980;19.776;2023-02-22T17:03:44;12.82;;;5.70;;
38427;SDS011;24211;49.980;19.776;2023-02-22T17:06:12;16.33;;;5.85;;
38427;SDS011;24211;49.980;19.776;2023-02-22T17:08:39;14.20;;;6.07;;
38427;SDS011;24211;49.980;19.776;2023-02-22T17:11:08;14.60;;;6.30;;
38427;SDS011;24211;49.980;19.776;2023-02-22T17:13:40;17.33;;;6.28;;
38427;SDS011;24211;49.980;19.776;2023-02-22T17:16:10;16.67;;;6.35;;
38427;SDS011;24211;49.980;19.776;2023-02-22T17:18:40;18.42;;;6.45;;
38427;SDS011;24211;49.980;19.776;2023-02-22T17:21:08;23.33;;;10.48;;